Time;durP1;ratioP1;P1;durP2;ratioP2;P2;SDS_P1;SDS_P2;PMS_P1;PMS_P2;Temp;Humidity;BMP_temperature;BMP_pressure;BME280_temperature;BME280_humidity;BME280_pressure;Samples;Min_cycle;Max_cycle;Signal;HPM_P1;HPM_P2
2023/05/04 00:02:21;;;;;;;19.93;8.87;;;13.10;99.90;;;;;;7295904;19;20652;-75
2023/05/04 00:04:47;;;;;;;14.23;7.67;;;13.00;99.90;;;;;;7304178;19;20192;-75
2023/05/04 00:07:13;;;;;;;20.33;8.33;;;13.00;99.90;;;;;;7284644;19;20193;-75
2023/05/04 00:09:38;;;;;;;16.03;7.90;;;12.90;99.90;;;;;;7283767;19;20684;-75
2023/05/04 00:12:05;;;;;;;16.83;8.10;;;12.90;99.90;;;;;;7283391;19;20192;-76
2023/05/04 00:14:31;;;;;;;15.33;8.90;;;12.90;99.90;;;;;;7284756;19;20535;-75
2023/05/04 00:16:57;;;;;;;16.77;8.73;;;12.90;99.90;;;;;;7282613;19;20257;-75
2023/05/04 00:19:22;;;;;;;17.50;8.40;;;12.90;99.90;;;;;;7285181;19;20208;-75
2023/05/04 00:21:48;;;;;;;19.27;8.43;;;12.90;99.90;;;;;;7304321;19;20255;-75
2023/05/04 00:24:14;;;;;;;17.03;7.77;;;12.80;99.90;;;;;;7284696;19;21012;-75
2023/05/04 00:26:40;;;;;;;15.93;8.33;;;12.90;99.90;;;;;;7283162;19;20189;-75
2023/05/04 00:29:05;;;;;;;21.50;8.47;;;12.80;99.90;;;;;;7285195;19;20252;-76
2023/05/04 00:31:31;;;;;;;17.27;8.63;;;12.70;99.90;;;;;;7284405;19;20195;-76
2023/05/04 00:33:57;;;;;;;19.23;8.70;;;12.80;99.90;;;;;;7284541;19;20189;-76
2023/05/04 00:36:23;;;;;;;16.93;8.40;;;12.80;99.90;;;;;;7284261;19;20692;-76
2023/05/04 00:38:51;;;;;;;17.87;9.20;;;12.80;99.90;;;;;;7304256;19;20223;-76
2023/05/04 00:41:18;;;;;;;17.63;8.10;;;12.80;99.90;;;;;;7284442;19;20277;-76
2023/05/04 00:43:44;;;;;;;16.47;8.70;;;12.80;99.90;;;;;;7283635;19;20200;-76
2023/05/04 00:46:11;;;;;;;18.43;8.07;;;12.80;99.90;;;;;;7285070;19;21228;-76
2023/05/04 00:48:48;;;;;;;15.53;8.33;;;12.90;99.90;;;;;;7283683;19;20181;-76
2023/05/04 00:51:15;;;;;;;17.60;7.80;;;12.80;99.90;;;;;;7283583;19;20184;-76
2023/05/04 00:53:41;;;;;;;15.53;8.63;;;12.70;99.90;;;;;;7283811;19;20665;-76
2023/05/04 00:56:07;;;;;;;15.93;8.60;;;12.60;99.90;;;;;;7283576;19;20201;-76
2023/05/04 00:58:34;;;;;;;14.83;8.50;;;12.70;99.90;;;;;;7282268;19;20197;-76
2023/05/04 01:01:02;;;;;;;18.67;8.20;;;12.60;99.90;;;;;;7284197;19;20325;-76
2023/05/04 01:03:29;;;;;;;16.30;7.87;;;12.60;99.90;;;;;;7282740;19;20185;-76
2023/05/04 01:06:14;;;;;;;20.00;8.53;;;12.60;99.90;;;;;;7282196;19;20193;-76
2023/05/04 01:08:45;;;;;;;19.20;8.67;;;12.60;99.90;;;;;;7282149;19;20196;-76
2023/05/04 01:11:20;;;;;;;17.50;8.53;;;12.50;99.90;;;;;;7281812;19;20212;-76
2023/05/04 01:13:47;;;;;;;19.37;8.30;;;12.50;99.90;;;;;;7283729;19;20188;-76
2023/05/04 01:16:13;;;;;;;16.07;8.20;;;12.50;99.90;;;;;;7283961;19;20195;-76
2023/05/04 01:18:41;;;;;;;15.27;7.90;;;12.50;99.90;;;;;;7283178;19;20208;-76
2023/05/04 01:21:08;;;;;;;15.47;8.00;;;12.50;99.90;;;;;;7281903;19;20205;-76
2023/05/04 01:23:34;;;;;;;19.87;9.17;;;12.60;99.90;;;;;;7283235;19;20203;-76
2023/05/04 01:26:04;;;;;;;18.47;9.07;;;12.60;99.90;;;;;;7284406;19;20595;-76
2023/05/04 01:28:40;;;;;;;18.77;8.57;;;12.50;99.90;;;;;;7283240;19;20196;-77
2023/05/04 01:31:08;;;;;;;16.80;8.47;;;12.40;99.90;;;;;;7281337;19;20192;-76
2023/05/04 01:33:36;;;;;;;17.80;8.87;;;12.40;99.90;;;;;;7282717;19;20248;-76
2023/05/04 01:36:05;;;;;;;16.93;8.50;;;12.40;99.90;;;;;;7283120;19;20208;-76
2023/05/04 01:38:31;;;;;;;17.07;8.63;;;12.40;99.90;;;;;;7281036;19;20254;-76
2023/05/04 01:40:57;;;;;;;18.17;9.07;;;12.40;99.90;;;;;;7282824;19;20608;-75
2023/05/04 01:43:23;;;;;;;17.77;8.70;;;12.30;99.90;;;;;;7279504;19;20199;-76
2023/05/04 01:45:49;;;;;;;17.17;8.70;;;12.30;99.90;;;;;;7304335;19;20276;-76
2023/05/04 01:48:15;;;;;;;17.93;9.30;;;12.20;99.90;;;;;;7282168;19;20195;-76
2023/05/04 01:50:41;;;;;;;17.47;9.00;;;12.30;99.90;;;;;;7280926;19;20271;-77
2023/05/04 01:53:07;;;;;;;17.40;9.27;;;12.20;99.90;;;;;;7280452;19;20196;-76
2023/05/04 01:55:33;;;;;;;17.33;8.93;;;12.30;99.90;;;;;;7281554;19;20195;-74
2023/05/04 01:57:58;;;;;;;21.43;9.10;;;12.30;99.90;;;;;;7279692;19;20259;-74
2023/05/04 02:00:25;;;;;;;18.87;8.67;;;12.20;99.90;;;;;;7280342;19;20199;-76
2023/05/04 02:02:51;;;;;;;21.30;9.37;;;12.10;99.90;;;;;;7297302;19;20189;-75
2023/05/04 02:05:18;;;;;;;18.00;9.67;;;12.10;99.90;;;;;;7302283;19;20184;-75
2023/05/04 02:07:44;;;;;;;18.17;8.90;;;12.10;99.90;;;;;;7280880;19;20192;-75
2023/05/04 02:10:10;;;;;;;20.13;9.13;;;12.10;99.90;;;;;;7281053;19;20196;-74
2023/05/04 02:12:36;;;;;;;16.03;9.23;;;12.20;99.90;;;;;;7280059;19;20290;-75
2023/05/04 02:15:02;;;;;;;18.40;8.83;;;12.10;99.90;;;;;;7281466;19;20754;-75
2023/05/04 02:17:27;;;;;;;17.67;9.37;;;12.10;99.90;;;;;;7280352;19;20200;-75
2023/05/04 02:19:53;;;;;;;18.77;9.53;;;12.10;99.90;;;;;;7281079;19;20545;-75
2023/05/04 02:22:19;;;;;;;18.20;9.13;;;11.90;99.90;;;;;;7301678;19;20614;-74
2023/05/04 02:24:45;;;;;;;22.20;10.23;;;11.90;99.90;;;;;;7280234;19;20196;-75
2023/05/04 02:27:10;;;;;;;19.23;10.03;;;11.70;99.90;;;;;;7279027;19;20205;-74
2023/05/04 02:29:37;;;;;;;20.10;9.30;;;11.70;99.90;;;;;;7280672;19;20206;-74
2023/05/04 02:32:03;;;;;;;16.23;9.30;;;11.70;99.90;;;;;;7279943;19;20189;-75
2023/05/04 02:34:29;;;;;;;18.63;9.53;;;11.70;99.90;;;;;;7280520;19;20195;-75
2023/05/04 02:36:54;;;;;;;19.97;9.50;;;11.70;99.90;;;;;;7281927;19;20191;-75
2023/05/04 02:39:21;;;;;;;17.27;9.40;;;11.60;99.90;;;;;;7312998;19;20204;-75
2023/05/04 02:41:46;;;;;;;19.67;8.93;;;11.60;99.90;;;;;;7292315;19;20203;-75
2023/05/04 02:44:12;;;;;;;22.37;10.07;;;11.50;99.90;;;;;;7289938;19;20203;-75
2023/05/04 02:46:38;;;;;;;18.87;9.40;;;11.60;99.90;;;;;;7302895;19;20198;-74
2023/05/04 02:49:04;;;;;;;15.50;8.90;;;11.60;99.90;;;;;;7303615;19;20196;-75
2023/05/04 02:51:29;;;;;;;22.13;9.60;;;11.50;99.90;;;;;;7299444;19;20672;-75
2023/05/04 02:53:55;;;;;;;18.60;10.37;;;11.50;99.90;;;;;;7289715;19;20271;-75
2023/05/04 02:56:21;;;;;;;17.83;10.70;;;11.60;99.90;;;;;;7307494;19;20255;-75
2023/05/04 02:58:47;;;;;;;17.00;9.63;;;11.60;99.90;;;;;;7299357;19;20662;-75
2023/05/04 03:01:13;;;;;;;16.43;9.23;;;11.50;99.90;;;;;;7287083;19;20262;-76
2023/05/04 03:03:38;;;;;;;19.10;9.63;;;11.40;99.90;;;;;;7287517;19;20192;-75
2023/05/04 03:06:07;;;;;;;17.17;9.50;;;11.40;99.90;;;;;;7290103;19;20196;-75
2023/05/04 03:08:33;;;;;;;16.40;9.80;;;11.40;99.90;;;;;;7289135;19;20211;-76
2023/05/04 03:10:58;;;;;;;18.77;9.77;;;11.40;99.90;;;;;;7288884;19;20184;-76
2023/05/04 03:13:24;;;;;;;18.73;9.20;;;11.40;99.90;;;;;;7287096;19;20196;-76
2023/05/04 03:15:50;;;;;;;20.43;10.33;;;11.40;99.90;;;;;;7310472;19;20270;-76
2023/05/04 03:18:16;;;;;;;20.00;9.53;;;11.30;99.90;;;;;;7288393;19;20286;-75
2023/05/04 03:20:42;;;;;;;18.47;9.67;;;11.40;99.90;;;;;;7286546;19;20271;-76
2023/05/04 03:23:11;;;;;;;17.13;9.37;;;11.40;99.90;;;;;;7287652;19;20504;-76
2023/05/04 03:25:37;;;;;;;17.37;9.43;;;11.40;99.90;;;;;;7285485;19;20700;-76
2023/05/04 03:28:04;;;;;;;19.30;9.87;;;11.30;99.90;;;;;;7286773;19;20191;-75
2023/05/04 03:30:30;;;;;;;17.83;9.40;;;11.30;99.90;;;;;;7283020;19;20188;-75
2023/05/04 03:33:00;;;;;;;17.83;9.30;;;11.30;99.90;;;;;;7285278;19;20191;-75
2023/05/04 03:35:26;;;;;;;17.73;9.10;;;11.40;99.90;;;;;;7285123;19;20199;-75
2023/05/04 03:37:54;;;;;;;17.90;9.30;;;11.40;99.90;;;;;;7284702;19;20190;-75
2023/05/04 03:40:21;;;;;;;18.80;10.03;;;11.40;99.90;;;;;;7308881;19;21019;-75
2023/05/04 03:42:50;;;;;;;18.17;9.63;;;11.40;99.90;;;;;;7286774;19;20211;-75
2023/05/04 03:45:16;;;;;;;17.93;9.60;;;11.40;99.90;;;;;;7285352;19;20712;-75
2023/05/04 03:47:42;;;;;;;19.10;9.87;;;11.40;99.90;;;;;;7285492;19;20186;-75
2023/05/04 03:50:08;;;;;;;18.73;9.37;;;11.40;99.90;;;;;;7285727;19;20194;-75
2023/05/04 03:52:34;;;;;;;20.90;9.00;;;11.30;99.90;;;;;;7284532;19;20188;-75
2023/05/04 03:55:00;;;;;;;20.37;10.13;;;11.20;99.90;;;;;;7285559;19;20190;-75
2023/05/04 03:57:26;;;;;;;18.73;9.57;;;11.20;99.90;;;;;;7283125;19;20224;-75
2023/05/04 03:59:53;;;;;;;17.77;9.70;;;11.00;99.90;;;;;;7285779;19;20207;-75
2023/05/04 04:02:20;;;;;;;17.30;9.60;;;11.00;99.90;;;;;;7308093;19;20814;-75
2023/05/04 04:04:46;;;;;;;20.97;9.50;;;11.00;99.90;;;;;;7284595;19;20653;-75
2023/05/04 04:07:11;;;;;;;22.67;9.93;;;10.90;99.90;;;;;;7285546;19;20376;-75
2023/05/04 04:09:38;;;;;;;24.80;10.20;;;11.00;99.90;;;;;;7283257;19;20181;-75
2023/05/04 04:12:04;;;;;;;17.10;8.90;;;11.00;99.90;;;;;;7286134;19;20700;-75
2023/05/04 04:14:29;;;;;;;19.77;9.60;;;10.90;99.90;;;;;;7286052;19;20677;-75
2023/05/04 04:16:55;;;;;;;20.63;10.33;;;10.90;99.90;;;;;;7285004;19;20522;-75
2023/05/04 04:19:21;;;;;;;19.53;9.90;;;11.00;99.90;;;;;;7305545;19;20187;-75
2023/05/04 04:21:47;;;;;;;19.10;10.40;;;11.10;99.90;;;;;;7284381;19;20191;-75
2023/05/04 04:24:12;;;;;;;18.33;9.63;;;11.00;99.90;;;;;;7284163;19;20273;-75
2023/05/04 04:26:38;;;;;;;18.47;9.73;;;10.90;99.90;;;;;;7285755;19;20194;-75
2023/05/04 04:29:04;;;;;;;18.57;9.67;;;10.90;99.90;;;;;;7285492;19;20210;-75
2023/05/04 04:31:30;;;;;;;19.10;9.53;;;10.90;99.90;;;;;;7283149;19;20211;-75
2023/05/04 04:33:56;;;;;;;17.53;10.03;;;10.90;99.90;;;;;;7285378;19;20183;-75
2023/05/04 04:36:21;;;;;;;18.93;9.83;;;10.90;99.90;;;;;;7306328;19;20207;-75
2023/05/04 04:38:47;;;;;;;17.30;9.43;;;11.00;99.90;;;;;;7291654;19;20185;-75
2023/05/04 04:41:13;;;;;;;17.83;9.87;;;11.10;99.90;;;;;;7285432;19;20193;-75
2023/05/04 04:43:39;;;;;;;18.00;9.83;;;11.10;99.90;;;;;;7286304;19;20194;-75
2023/05/04 04:46:05;;;;;;;19.50;10.03;;;11.10;99.90;;;;;;7284949;19;20375;-76
2023/05/04 04:48:31;;;;;;;22.10;9.57;;;11.20;99.90;;;;;;7285271;19;20202;-76
2023/05/04 04:50:57;;;;;;;21.43;10.03;;;11.30;99.90;;;;;;7284810;19;20186;-76
2023/05/04 04:53:23;;;;;;;21.50;9.97;;;11.50;99.90;;;;;;7285465;19;20211;-76
2023/05/04 04:55:49;;;;;;;19.70;9.83;;;11.50;99.90;;;;;;7306791;19;20187;-75
2023/05/04 04:58:15;;;;;;;19.50;9.83;;;11.60;99.90;;;;;;7282500;19;20283;-76
2023/05/04 05:00:41;;;;;;;18.70;9.47;;;11.70;99.90;;;;;;7283276;19;20211;-76
2023/05/04 05:03:06;;;;;;;14.97;9.23;;;11.80;99.90;;;;;;7285515;19;20182;-74
2023/05/04 05:05:32;;;;;;;17.83;9.47;;;11.80;99.90;;;;;;7282920;19;20180;-75
2023/05/04 05:07:58;;;;;;;17.87;8.83;;;11.80;99.90;;;;;;7283313;19;20291;-77
2023/05/04 05:10:24;;;;;;;17.13;9.17;;;11.90;99.90;;;;;;7285260;19;20189;-75
2023/05/04 05:12:50;;;;;;;17.20;9.00;;;12.10;99.90;;;;;;7307088;19;20185;-76
2023/05/04 05:15:15;;;;;;;18.07;8.83;;;12.40;99.90;;;;;;7283967;19;20192;-76
2023/05/04 05:17:41;;;;;;;17.90;9.20;;;12.70;99.90;;;;;;7283573;19;20201;-76
2023/05/04 05:20:11;;;;;;;14.50;8.07;;;13.30;99.90;;;;;;7282423;19;20194;-76
2023/05/04 05:22:37;;;;;;;18.03;8.33;;;13.80;99.90;;;;;;7284482;19;20692;-76
2023/05/04 05:25:05;;;;;;;19.47;8.80;;;14.00;99.90;;;;;;7281240;19;20206;-75
2023/05/04 05:27:35;;;;;;;19.50;8.57;;;14.00;99.90;;;;;;7284727;19;20208;-75
2023/05/04 05:30:21;;;;;;;18.40;9.13;;;14.00;99.90;;;;;;7283651;19;20205;-75
2023/05/04 05:32:48;;;;;;;16.37;8.37;;;14.20;99.90;;;;;;7284639;19;20193;-75
2023/05/04 05:35:14;;;;;;;17.10;8.70;;;14.40;99.90;;;;;;7284466;19;20209;-75
2023/05/04 05:37:40;;;;;;;16.17;7.67;;;14.90;99.90;;;;;;7283444;19;20186;-75
2023/05/04 05:40:06;;;;;;;17.90;8.03;;;15.20;99.90;;;;;;7282116;19;20213;-74
2023/05/04 05:42:32;;;;;;;16.23;7.87;;;15.20;99.90;;;;;;7284143;19;20197;-75
2023/05/04 05:45:00;;;;;;;17.50;8.23;;;15.40;99.90;;;;;;7282306;19;20187;-74
2023/05/04 05:47:26;;;;;;;14.57;7.63;;;16.30;99.90;;;;;;7280983;19;20557;-74
2023/05/04 05:49:53;;;;;;;14.97;7.60;;;17.40;99.90;;;;;;7300193;19;20935;-74
2023/05/04 05:52:19;;;;;;;16.10;7.90;;;18.30;99.90;;;;;;7305576;19;20624;-76
2023/05/04 05:54:44;;;;;;;15.97;6.90;;;18.80;99.90;;;;;;7273920;19;20309;-75
2023/05/04 05:57:10;;;;;;;17.10;6.97;;;18.60;99.90;;;;;;7277389;19;20516;-76
2023/05/04 05:59:36;;;;;;;14.13;7.00;;;18.80;99.90;;;;;;7278283;19;20193;-77
2023/05/04 06:02:02;;;;;;;14.23;6.90;;;19.90;99.90;;;;;;7276052;19;20177;-76
2023/05/04 06:04:27;;;;;;;14.47;6.80;;;20.40;99.90;;;;;;7277831;19;20993;-76
2023/05/04 06:06:53;;;;;;;14.27;6.63;;;20.10;99.90;;;;;;7286344;19;20184;-76
2023/05/04 06:09:19;;;;;;;14.63;6.33;;;19.60;99.90;;;;;;7300323;19;20195;-77
2023/05/04 06:11:45;;;;;;;17.57;6.50;;;19.50;99.90;;;;;;7277016;19;20176;-76
2023/05/04 06:14:11;;;;;;;14.33;6.00;;;19.60;99.90;;;;;;7275407;19;20501;-76
2023/05/04 06:16:37;;;;;;;13.70;6.20;;;20.00;99.90;;;;;;7275096;19;20649;-77
2023/05/04 06:19:03;;;;;;;15.20;6.27;;;20.10;99.90;;;;;;7277242;19;20261;-77
2023/05/04 06:21:29;;;;;;;13.27;6.00;;;19.20;99.90;;;;;;7284814;19;20203;-77
2023/05/04 06:23:54;;;;;;;14.23;6.03;;;19.60;99.90;;;;;;7282275;19;20671;-77
2023/05/04 06:26:21;;;;;;;13.37;5.87;;;19.80;99.90;;;;;;7303680;19;20274;-77
2023/05/04 06:28:47;;;;;;;13.33;6.13;;;19.80;99.90;;;;;;7283552;19;20203;-77
2023/05/04 06:31:13;;;;;;;13.87;6.17;;;19.90;99.90;;;;;;7284099;19;20221;-77
2023/05/04 06:33:39;;;;;;;15.77;6.20;;;19.70;99.90;;;;;;7282331;19;20191;-77
2023/05/04 06:36:05;;;;;;;10.67;5.93;;;19.70;99.90;;;;;;7283776;19;20272;-77
2023/05/04 06:38:38;;;;;;;11.50;5.60;;;20.10;99.90;;;;;;7281787;19;20661;-77
2023/05/04 06:41:03;;;;;;;14.23;5.33;;;20.30;99.90;;;;;;7282380;19;20187;-76
2023/05/04 06:43:40;;;;;;;14.00;5.63;;;20.50;99.90;;;;;;7282609;19;20197;-77
2023/05/04 06:46:06;;;;;;;9.27;5.27;;;20.70;99.90;;;;;;7280535;19;20195;-77
2023/05/04 06:48:32;;;;;;;12.17;5.60;;;20.90;99.90;;;;;;7282438;19;20196;-77
2023/05/04 06:50:58;;;;;;;13.23;5.47;;;21.00;99.90;;;;;;7281473;19;20185;-76
2023/05/04 06:53:24;;;;;;;13.17;5.13;;;21.10;99.90;;;;;;7284388;19;20195;-76
2023/05/04 06:55:50;;;;;;;10.87;4.93;;;21.30;99.90;;;;;;7300584;19;21802;-76
2023/05/04 06:58:18;;;;;;;11.40;5.17;;;21.40;99.90;;;;;;7279423;19;20192;-76
2023/05/04 07:00:45;;;;;;;11.40;5.03;;;21.50;99.90;;;;;;7279750;19;20196;-76
2023/05/04 07:03:11;;;;;;;12.33;5.17;;;21.50;99.90;;;;;;7283373;19;20189;-77
2023/05/04 07:05:37;;;;;;;10.43;4.87;;;21.90;99.90;;;;;;7281500;19;20188;-77
2023/05/04 07:08:03;;;;;;;11.57;5.00;;;22.30;99.90;;;;;;7281723;19;20191;-77
2023/05/04 07:10:29;;;;;;;16.27;4.97;;;22.50;98.60;;;;;;7281022;19;20723;-76
2023/05/04 07:12:55;;;;;;;15.77;5.17;;;22.50;99.30;;;;;;7280772;19;20284;-76
2023/05/04 07:15:21;;;;;;;11.40;5.33;;;22.40;98.30;;;;;;7299904;19;20198;-76
2023/05/04 07:17:47;;;;;;;10.60;5.53;;;22.60;97.30;;;;;;7282037;19;20306;-76
2023/05/04 07:20:16;;;;;;;14.07;5.30;;;22.60;97.70;;;;;;7281002;19;20277;-76
2023/05/04 07:22:48;;;;;;;13.67;5.33;;;22.20;97.70;;;;;;7282275;19;20198;-77
2023/05/04 07:25:20;;;;;;;10.83;5.33;;;22.80;97.70;;;;;;7282807;19;20401;-77
2023/05/04 07:27:45;;;;;;;13.00;5.17;;;23.50;95.60;;;;;;7281541;19;20286;-76
2023/05/04 07:30:12;;;;;;;11.90;5.13;;;23.70;95.90;;;;;;7282350;19;20192;-76
2023/05/04 07:32:37;;;;;;;11.33;4.77;;;23.30;95.30;;;;;;7282024;19;20193;-76
2023/05/04 07:35:05;;;;;;;9.07;5.03;;;24.30;95.50;;;;;;7280916;19;20204;-76
2023/05/04 07:37:32;;;;;;;12.90;5.40;;;24.60;92.90;;;;;;7280130;19;20193;-76
2023/05/04 07:39:59;;;;;;;13.77;5.17;;;25.00;93.20;;;;;;7280449;19;20188;-76
2023/05/04 07:42:26;;;;;;;13.87;5.43;;;25.40;91.40;;;;;;7280774;19;20189;-76
2023/05/04 07:44:52;;;;;;;10.95;5.30;;;25.80;91.10;;;;;;7302266;19;20197;-76
2023/05/04 07:47:19;;;;;;;11.52;5.35;;;26.70;89.30;;;;;;7292068;19;20185;-76
2023/05/04 07:49:44;;;;;;;11.00;5.50;;;27.90;85.60;;;;;;7280395;19;20584;-77
2023/05/04 07:52:11;;;;;;;12.10;5.80;;;27.50;83.30;;;;;;7282328;19;20199;-76
2023/05/04 07:54:37;;;;;;;10.73;5.20;;;26.50;82.20;;;;;;7280760;19;20275;-76
2023/05/04 07:57:03;;;;;;;13.80;5.50;;;26.90;82.10;;;;;;7278178;19;20205;-76
2023/05/04 07:59:32;;;;;;;11.35;4.95;;;26.40;82.00;;;;;;7285382;19;20189;-75
2023/05/04 08:01:58;;;;;;;8.60;4.75;;;27.10;81.40;;;;;;7285138;19;20196;-76
2023/05/04 08:04:24;;;;;;;11.50;5.40;;;28.30;80.40;;;;;;7289844;19;20228;-75
2023/05/04 08:06:50;;;;;;;9.75;4.93;;;27.90;77.50;;;;;;7307813;19;20184;-76
2023/05/04 08:09:17;;;;;;;12.55;4.72;;;27.40;77.90;;;;;;7287125;19;20226;-76
2023/05/04 08:11:44;;;;;;;9.25;5.18;;;27.80;77.30;;;;;;7286559;19;20181;-76
2023/05/04 08:14:10;;;;;;;12.05;4.93;;;28.00;76.00;;;;;;7287762;19;20197;-76
2023/05/04 08:16:36;;;;;;;11.77;5.00;;;27.80;76.70;;;;;;7286721;19;20193;-76
2023/05/04 08:19:02;;;;;;;10.57;4.80;;;27.90;75.70;;;;;;7284234;19;20180;-76
2023/05/04 08:21:27;;;;;;;11.75;4.55;;;27.80;76.00;;;;;;7288703;19;20213;-82
2023/05/04 08:23:54;;;;;;;8.73;4.75;;;28.20;76.10;;;;;;7300608;19;20652;-80
2023/05/04 08:26:19;;;;;;;7.72;4.20;;;28.90;71.70;;;;;;7396408;19;20178;-81
2023/05/04 08:28:45;;;;;;;11.85;4.68;;;29.10;72.50;;;;;;7402983;19;20141;-81
2023/05/04 08:31:12;;;;;;;11.30;4.85;;;30.00;71.10;;;;;;7332776;19;20196;-81
2023/05/04 08:33:38;;;;;;;8.23;4.75;;;31.20;69.10;;;;;;7290397;19;20256;-81
2023/05/04 08:36:05;;;;;;;11.07;4.35;;;32.30;65.00;;;;;;7282097;19;20567;-79
2023/05/04 08:38:31;;;;;;;8.10;4.95;;;32.70;62.70;;;;;;7284386;19;20181;-81
2023/05/04 08:41:01;;;;;;;10.60;5.15;;;31.70;62.20;;;;;;7269087;19;20188;-81
2023/05/04 08:43:28;;;;;;;9.48;4.68;;;31.20;63.30;;;;;;7282979;19;20181;-80
2023/05/04 08:45:54;;;;;;;12.90;6.25;;;30.70;64.70;;;;;;7308835;19;20193;-80
2023/05/04 08:48:21;;;;;;;9.80;4.93;;;29.50;64.00;;;;;;7287822;19;20192;-81
2023/05/04 08:50:47;;;;;;;11.75;5.03;;;27.90;66.90;;;;;;7276354;19;20186;-81
2023/05/04 08:53:17;;;;;;;10.15;4.65;;;27.90;68.80;;;;;;7285479;19;20187;-82
2023/05/04 08:55:46;;;;;;;6.95;4.13;;;27.80;69.10;;;;;;7278373;19;20185;-81
2023/05/04 08:58:13;;;;;;;10.75;4.60;;;28.30;69.00;;;;;;7286153;19;20590;-81
2023/05/04 09:00:42;;;;;;;11.98;4.45;;;28.70;67.70;;;;;;7275791;19;20188;-80
2023/05/04 09:03:09;;;;;;;8.18;3.67;;;29.30;68.10;;;;;;7286951;19;20202;-81
2023/05/04 09:05:37;;;;;;;7.03;4.05;;;29.80;67.30;;;;;;7287221;19;20644;-81
2023/05/04 09:08:03;;;;;;;8.07;3.55;;;30.50;64.30;;;;;;7285947;19;20199;-81
2023/05/04 09:10:29;;;;;;;9.30;3.85;;;30.10;64.10;;;;;;7287572;19;20189;-80
2023/05/04 09:12:55;;;;;;;8.85;3.88;;;30.60;63.80;;;;;;7284436;19;20197;-81
2023/05/04 09:15:22;;;;;;;9.77;3.60;;;30.80;61.50;;;;;;7308980;19;20200;-81
2023/05/04 09:18:02;;;;;;;8.43;3.95;;;30.80;63.00;;;;;;7285893;19;20268;-81
2023/05/04 09:20:29;;;;;;;7.63;3.65;;;30.70;61.80;;;;;;7263466;19;20192;-80
2023/05/04 09:23:08;;;;;;;7.65;3.50;;;30.80;62.00;;;;;;7283288;19;20561;-81
2023/05/04 09:25:51;;;;;;;12.65;4.10;;;30.60;61.00;;;;;;7281465;19;20194;-81
2023/05/04 09:28:19;;;;;;;9.13;3.65;;;30.90;61.60;;;;;;7288707;19;20207;-82
2023/05/04 09:30:46;;;;;;;7.78;3.72;;;32.10;60.00;;;;;;7287826;19;20194;-81
2023/05/04 09:33:12;;;;;;;8.00;3.55;;;32.40;57.90;;;;;;7276629;19;20189;-82
2023/05/04 09:35:43;;;;;;;7.38;3.67;;;32.80;58.30;;;;;;7288320;19;20189;-81
2023/05/04 09:38:09;;;;;;;10.40;3.40;;;31.80;58.70;;;;;;7293847;19;20192;-80
2023/05/04 09:40:36;;;;;;;7.45;3.75;;;32.20;58.00;;;;;;7310634;19;20180;-81
2023/05/04 09:43:02;;;;;;;6.85;3.67;;;32.60;57.60;;;;;;7280182;19;20656;-82
2023/05/04 09:45:47;;;;;;;7.57;3.50;;;32.60;57.20;;;;;;7285135;19;20218;-82
2023/05/04 09:48:30;;;;;;;7.43;3.60;;;32.40;55.90;;;;;;7284871;19;20317;-81
2023/05/04 09:51:00;;;;;;;7.03;3.20;;;31.40;56.90;;;;;;7262720;19;20207;-80
2023/05/04 09:53:28;;;;;;;8.63;3.85;;;30.70;57.80;;;;;;7284478;19;20181;-81
2023/05/04 09:56:13;;;;;;;7.22;3.63;;;29.60;58.60;;;;;;7307228;19;20185;-81
2023/05/04 09:58:41;;;;;;;8.07;3.50;;;30.50;59.20;;;;;;7292190;19;20517;-82
2023/05/04 10:01:08;;;;;;;7.85;3.60;;;30.50;58.80;;;;;;7288972;19;20198;-81
2023/05/04 10:03:34;;;;;;;8.63;3.65;;;31.00;59.00;;;;;;7291855;19;20374;-81
2023/05/04 10:06:03;;;;;;;6.53;4.25;;;31.20;57.30;;;;;;7290636;19;20184;-81
2023/05/04 10:08:30;;;;;;;7.68;3.80;;;29.60;58.30;;;;;;7292352;19;20185;-81
2023/05/04 10:10:56;;;;;;;9.60;4.03;;;28.70;60.50;;;;;;7291098;19;20683;-82
2023/05/04 10:13:22;;;;;;;6.03;3.20;;;29.20;61.60;;;;;;7312774;19;20600;-82
2023/05/04 10:16:17;;;;;;;10.57;3.13;;;30.30;59.60;;;;;;7299659;19;20216;-79
2023/05/04 10:19:14;;;;;;;6.65;3.20;;;31.50;59.10;;;;;;7188818;19;2004448;-81
2023/05/04 10:21:51;;;;;;;8.88;3.85;;;31.00;57.90;;;;;;7189497;19;2004971;-80
2023/05/04 10:24:49;;;;;;;8.95;3.67;;;30.20;58.00;;;;;;7289756;19;20189;-82
2023/05/04 10:27:35;;;;;;;8.38;3.75;;;30.10;59.00;;;;;;7188153;19;2005091;-82
2023/05/04 10:30:01;;;;;;;10.57;3.25;;;29.50;59.60;;;;;;7188880;19;2005040;-81
2023/05/04 10:32:27;;;;;;;10.82;3.50;;;30.30;60.40;;;;;;7290461;19;20281;-81
2023/05/04 10:35:06;;;;;;;9.23;3.63;;;30.50;59.30;;;;;;7312877;19;20192;-77
2023/05/04 10:37:32;;;;;;;5.57;3.42;;;30.50;60.10;;;;;;7291737;19;20181;-82
2023/05/04 10:39:58;;;;;;;8.18;3.50;;;30.30;59.10;;;;;;7289303;19;20556;-80
2023/05/04 10:42:24;;;;;;;6.22;3.15;;;28.90;60.30;;;;;;7305929;19;20192;-79
2023/05/04 10:44:54;;;;;;;7.03;2.65;;;29.60;60.80;;;;;;7304868;19;20204;-82
2023/05/04 10:47:31;;;;;;;6.82;3.00;;;31.60;59.90;;;;;;7290841;19;20189;-81
2023/05/04 10:50:04;;;;;;;8.95;3.15;;;32.60;58.00;;;;;;7267869;19;20550;-81
2023/05/04 10:52:47;;;;;;;6.25;3.03;;;31.00;57.80;;;;;;7290738;19;20188;-80
2023/05/04 10:55:14;;;;;;;8.57;3.40;;;30.70;58.90;;;;;;7290641;19;20217;-81
2023/05/04 10:58:06;;;;;;;7.75;3.20;;;30.70;59.00;;;;;;7289942;19;20197;-81
2023/05/04 11:00:40;;;;;;;7.93;3.45;;;30.40;58.50;;;;;;7184907;19;2005157;-81
2023/05/04 11:03:06;;;;;;;8.18;3.50;;;29.90;59.00;;;;;;7289880;19;20196;-81
2023/05/04 11:05:53;;;;;;;6.93;3.50;;;30.20;59.70;;;;;;7291099;19;20204;-81
2023/05/04 11:08:25;;;;;;;6.13;3.47;;;29.50;58.80;;;;;;7291407;19;20284;-81
2023/05/04 11:11:08;;;;;;;6.13;3.30;;;29.70;59.40;;;;;;7288688;19;20193;-81
2023/05/04 11:13:39;;;;;;;10.00;3.58;;;29.10;59.70;;;;;;7184674;19;2004579;-81
2023/05/04 11:16:05;;;;;;;6.93;3.58;;;29.20;61.60;;;;;;7289997;19;20204;-81
2023/05/04 11:18:36;;;;;;;6.97;3.45;;;29.60;60.10;;;;;;7289830;19;20192;-81
2023/05/04 11:21:02;;;;;;;7.35;3.38;;;29.70;60.20;;;;;;7290104;19;20200;-81
2023/05/04 11:23:28;;;;;;;8.27;2.83;;;28.80;59.70;;;;;;7289395;19;20191;-81
2023/05/04 11:25:54;;;;;;;6.85;3.10;;;29.70;60.60;;;;;;7305023;19;20188;-80
2023/05/04 11:28:36;;;;;;;8.32;3.40;;;30.80;59.30;;;;;;7308672;19;20218;-82
2023/05/04 11:31:19;;;;;;;4.43;2.78;;;31.30;57.90;;;;;;7184178;19;2004867;-82
2023/05/04 11:33:45;;;;;;;5.63;2.60;;;31.30;58.80;;;;;;7289340;19;20278;-81
2023/05/04 11:36:12;;;;;;;8.18;2.75;;;31.90;58.00;;;;;;7288859;19;20204;-82
2023/05/04 11:38:38;;;;;;;5.35;2.85;;;31.40;58.30;;;;;;7289286;19;20200;-82
2023/05/04 11:41:03;;;;;;;6.40;2.55;;;30.10;58.30;;;;;;7287359;19;20189;-82
2023/05/04 11:43:31;;;;;;;6.38;2.60;;;30.00;59.00;;;;;;7287677;19;20189;-82
2023/05/04 11:45:59;;;;;;;6.57;2.60;;;29.80;60.00;;;;;;7288016;19;20188;-81
2023/05/04 11:48:27;;;;;;;6.35;2.90;;;30.00;59.80;;;;;;7291906;19;20687;-81
2023/05/04 11:50:54;;;;;;;5.15;2.53;;;29.50;59.00;;;;;;7310074;19;20550;-82
2023/05/04 11:53:22;;;;;;;8.27;2.53;;;29.20;59.30;;;;;;7289777;19;20644;-81
2023/05/04 11:55:48;;;;;;;8.20;2.28;;;29.10;59.80;;;;;;7288731;19;20196;-81
2023/05/04 11:58:14;;;;;;;6.20;2.30;;;28.90;59.80;;;;;;7288355;19;20289;-82
2023/05/04 12:00:42;;;;;;;4.47;2.20;;;28.90;59.70;;;;;;7287323;19;20200;-81
2023/05/04 12:03:13;;;;;;;7.35;2.30;;;28.60;60.90;;;;;;7288589;19;20201;-81
2023/05/04 12:05:46;;;;;;;5.85;2.22;;;28.80;61.30;;;;;;7287421;19;20200;-81
2023/05/04 12:08:21;;;;;;;5.75;2.00;;;28.40;62.40;;;;;;7288269;19;20196;-81
2023/05/04 12:10:47;;;;;;;6.20;2.17;;;28.30;61.40;;;;;;7287196;19;20711;-81
2023/05/04 12:13:16;;;;;;;4.85;2.45;;;28.70;61.70;;;;;;7289369;19;20189;-81
2023/05/04 12:15:42;;;;;;;4.88;2.28;;;29.30;60.70;;;;;;7287210;19;20220;-80
2023/05/04 12:18:19;;;;;;;5.40;2.50;;;29.40;60.70;;;;;;7285892;19;20204;-81
2023/05/04 12:20:47;;;;;;;5.07;2.30;;;29.60;60.00;;;;;;7289491;19;20178;-80
2023/05/04 12:23:12;;;;;;;4.72;1.98;;;29.60;59.20;;;;;;7288555;19;20207;-83
2023/05/04 12:25:38;;;;;;;3.85;1.98;;;28.80;59.10;;;;;;7288365;19;20189;-81
2023/05/04 12:28:04;;;;;;;6.03;2.20;;;28.00;59.60;;;;;;7287786;19;20185;-82
2023/05/04 12:30:30;;;;;;;4.43;2.10;;;27.70;60.70;;;;;;7285732;19;20193;-82
2023/05/04 12:32:56;;;;;;;7.82;2.55;;;27.60;62.80;;;;;;7286059;19;20191;-81
2023/05/04 12:35:22;;;;;;;5.10;2.15;;;27.30;63.60;;;;;;7309682;19;20252;-81
2023/05/04 12:37:47;;;;;;;7.30;2.42;;;26.90;63.50;;;;;;7287274;19;20709;-82
2023/05/04 12:40:13;;;;;;;5.63;2.28;;;26.60;63.30;;;;;;7286963;19;20215;-81
2023/05/04 12:42:41;;;;;;;5.38;2.30;;;26.60;64.40;;;;;;7286669;19;20193;-82